EZY78ZR GCTS-EGGP
Flight info
| Callsign | EZY78ZR |
|---|---|
| Flight time | N/A |
| Altitude | 34000 |
| Route | KONBA UN866 BEXAL/N0443F360 DCT ZIFOG DCT DEMOS DCT SOSOV/N0439F350 DCT AMPOP DCT SIDDI DCT EPACE DCT ACCOP P16 PEPZE |
| Aircraft | A320/M-SDE2E3FGHIJ1RWXYZ/LB1 |
Departure
| Time | N/A |
|---|---|
| Airport | Tenerife Sur Airport (GCTS) |
Arrival
| Time | 2026-05-03 22:56 |
|---|---|
| Airport | Liverpool John Lennon Airport (EGGP) |
| Time | Latitude | Longitude | Altitude | Speed | Heading |
|---|---|---|---|---|---|
| 2026-05-03 20:15 | 35.25101 | -12.07175 | 34141 ft | 489 kts | 29° |
| 2026-05-03 20:15 | 35.30662 | -12.02382 | 34145 ft | 489 kts | 29° |
| 2026-05-03 20:16 | 35.36238 | -11.97578 | 34127 ft | 489 kts | 29° |
| 2026-05-03 20:16 | 35.41792 | -11.92776 | 34125 ft | 489 kts | 30° |
| 2026-05-03 20:17 | 35.47328 | -11.87980 | 34123 ft | 490 kts | 30° |
| 2026-05-03 20:17 | 35.52896 | -11.83146 | 34119 ft | 490 kts | 30° |
| 2026-05-03 20:18 | 35.58452 | -11.78304 | 34119 ft | 490 kts | 30° |
| 2026-05-03 20:18 | 35.64028 | -11.73453 | 34122 ft | 490 kts | 30° |
| 2026-05-03 20:19 | 35.69592 | -11.68592 | 34144 ft | 490 kts | 30° |
| 2026-05-03 20:19 | 35.75121 | -11.63764 | 34124 ft | 490 kts | 29° |
| 2026-05-03 20:20 | 35.80669 | -11.58915 | 34117 ft | 490 kts | 30° |
| 2026-05-03 20:20 | 35.86242 | -11.54028 | 34118 ft | 491 kts | 30° |
| 2026-05-03 20:21 | 35.91725 | -11.49207 | 34401 ft | 496 kts | 30° |
| 2026-05-03 20:21 | 35.94584 | -11.46837 | 34594 ft | 491 kts | 23° |
| 2026-05-03 20:21 | 35.97624 | -11.44984 | 34814 ft | 483 kts | 13° |
| 2026-05-03 20:21 | 36.00790 | -11.43715 | 34983 ft | 473 kts | 5° |
| 2026-05-03 20:22 | 36.03960 | -11.42857 | 35163 ft | 472 kts | 3° |
| 2026-05-03 20:22 | 36.07178 | -11.41988 | 35352 ft | 472 kts | 4° |
| 2026-05-03 20:22 | 36.10383 | -11.41106 | 35547 ft | 472 kts | 4° |
| 2026-05-03 20:22 | 36.13607 | -11.40213 | 35738 ft | 472 kts | 4° |
| 2026-05-03 20:23 | 36.16772 | -11.39331 | 35920 ft | 472 kts | 4° |
| 2026-05-03 20:23 | 36.19984 | -11.38433 | 36084 ft | 472 kts | 4° |
| 2026-05-03 20:23 | 36.23198 | -11.37536 | 36124 ft | 472 kts | 4° |
| 2026-05-03 20:24 | 36.29622 | -11.35762 | 36120 ft | 472 kts | 4° |
| 2026-05-03 20:24 | 36.35987 | -11.34008 | 36122 ft | 472 kts | 4° |
| 2026-05-03 20:25 | 36.42407 | -11.32225 | 36125 ft | 472 kts | 4° |
| 2026-05-03 20:25 | 36.48822 | -11.30428 | 36130 ft | 472 kts | 4° |
| 2026-05-03 20:26 | 36.55237 | -11.28644 | 36122 ft | 472 kts | 4° |
| 2026-05-03 20:26 | 36.61623 | -11.26859 | 36119 ft | 473 kts | 4° |
| 2026-05-03 20:27 | 36.68053 | -11.25063 | 36122 ft | 473 kts | 4° |
| 2026-05-03 20:27 | 36.74488 | -11.23267 | 36128 ft | 472 kts | 4° |
| 2026-05-03 20:28 | 36.80866 | -11.21480 | 36118 ft | 471 kts | 4° |
| 2026-05-03 20:28 | 36.87275 | -11.19686 | 36118 ft | 472 kts | 4° |
| 2026-05-03 20:29 | 36.93655 | -11.17884 | 36128 ft | 472 kts | 4° |
| 2026-05-03 20:29 | 37.00068 | -11.16076 | 36145 ft | 472 kts | 4° |
| 2026-05-03 20:30 | 37.06457 | -11.14270 | 36140 ft | 472 kts | 4° |
| 2026-05-03 20:30 | 37.12778 | -11.12483 | 36135 ft | 472 kts | 4° |
| 2026-05-03 20:31 | 37.19160 | -11.10668 | 36130 ft | 472 kts | 4° |
| 2026-05-03 20:31 | 37.25553 | -11.08860 | 36118 ft | 470 kts | 4° |
| 2026-05-03 20:32 | 37.31947 | -11.07045 | 36112 ft | 470 kts | 4° |
| 2026-05-03 20:32 | 37.38342 | -11.05229 | 36118 ft | 470 kts | 4° |
| 2026-05-03 20:33 | 37.44709 | -11.03415 | 36149 ft | 471 kts | 4° |
| 2026-05-03 20:33 | 37.51090 | -11.01590 | 36140 ft | 471 kts | 4° |
| 2026-05-03 20:34 | 37.57454 | -10.99764 | 36131 ft | 471 kts | 5° |
| 2026-05-03 20:34 | 37.63846 | -10.97927 | 36129 ft | 471 kts | 5° |
| 2026-05-03 20:35 | 37.70252 | -10.96094 | 36129 ft | 471 kts | 5° |
| 2026-05-03 20:35 | 37.76622 | -10.94270 | 36112 ft | 469 kts | 5° |
| 2026-05-03 20:36 | 37.82966 | -10.92438 | 36097 ft | 470 kts | 5° |
| 2026-05-03 20:36 | 37.89366 | -10.90579 | 36100 ft | 471 kts | 5° |
| 2026-05-03 20:37 | 37.95733 | -10.88733 | 36104 ft | 472 kts | 5° |
| 2026-05-03 20:37 | 38.02139 | -10.86888 | 36109 ft | 472 kts | 5° |
| 2026-05-03 20:38 | 38.08551 | -10.85027 | 36114 ft | 472 kts | 5° |
| 2026-05-03 20:38 | 38.14924 | -10.83164 | 36117 ft | 472 kts | 5° |
| 2026-05-03 20:39 | 38.21332 | -10.81285 | 36145 ft | 472 kts | 5° |
| 2026-05-03 20:39 | 38.27741 | -10.79406 | 36136 ft | 472 kts | 5° |
| 2026-05-03 20:40 | 38.34148 | -10.77533 | 36125 ft | 472 kts | 5° |
| 2026-05-03 20:40 | 38.40555 | -10.75663 | 36154 ft | 472 kts | 5° |
| 2026-05-03 20:41 | 38.46906 | -10.73808 | 36142 ft | 472 kts | 5° |
| 2026-05-03 20:41 | 38.53308 | -10.71924 | 36135 ft | 471 kts | 5° |
| 2026-05-03 20:42 | 38.59660 | -10.70042 | 36126 ft | 471 kts | 5° |
| 2026-05-03 20:42 | 38.66052 | -10.68148 | 36115 ft | 471 kts | 6° |
| 2026-05-03 20:43 | 38.72431 | -10.66167 | 36107 ft | 472 kts | 8° |
| 2026-05-03 20:43 | 38.78712 | -10.63771 | 36108 ft | 474 kts | 11° |
| 2026-05-03 20:44 | 38.85023 | -10.61186 | 36107 ft | 474 kts | 11° |
| 2026-05-03 20:44 | 38.91326 | -10.58672 | 36132 ft | 474 kts | 10° |
| 2026-05-03 20:45 | 38.97603 | -10.56246 | 36118 ft | 473 kts | 10° |
| 2026-05-03 20:45 | 39.03935 | -10.53814 | 36107 ft | 474 kts | 10° |
| 2026-05-03 20:46 | 39.10269 | -10.51355 | 36103 ft | 475 kts | 10° |
| 2026-05-03 20:46 | 39.16552 | -10.48884 | 36136 ft | 474 kts | 11° |
| 2026-05-03 20:47 | 39.22875 | -10.46394 | 36128 ft | 473 kts | 11° |
| 2026-05-03 20:47 | 39.29179 | -10.43931 | 36121 ft | 473 kts | 11° |
| 2026-05-03 20:48 | 39.35449 | -10.41474 | 36143 ft | 473 kts | 11° |
| 2026-05-03 20:48 | 39.41740 | -10.38994 | 36130 ft | 472 kts | 11° |
| 2026-05-03 20:49 | 39.48031 | -10.36508 | 36123 ft | 471 kts | 11° |
| 2026-05-03 20:49 | 39.54269 | -10.34042 | 36118 ft | 471 kts | 11° |
| 2026-05-03 20:50 | 39.60542 | -10.31561 | 36133 ft | 470 kts | 12° |
| 2026-05-03 20:50 | 39.66804 | -10.29079 | 36119 ft | 470 kts | 12° |
| 2026-05-03 20:51 | 39.73021 | -10.26605 | 36113 ft | 470 kts | 12° |
| 2026-05-03 20:51 | 39.79262 | -10.24118 | 36111 ft | 469 kts | 12° |
| 2026-05-03 20:52 | 39.85514 | -10.21626 | 36130 ft | 469 kts | 12° |
| 2026-05-03 20:52 | 39.91764 | -10.19126 | 36116 ft | 469 kts | 12° |
| 2026-05-03 20:53 | 39.97974 | -10.16638 | 36108 ft | 469 kts | 12° |
| 2026-05-03 20:53 | 40.04225 | -10.14136 | 36125 ft | 469 kts | 12° |
| 2026-05-03 20:54 | 40.10446 | -10.11634 | 36112 ft | 469 kts | 12° |
| 2026-05-03 20:54 | 40.19823 | -10.07848 | 36106 ft | 469 kts | 12° |
| 2026-05-03 20:55 | 40.26041 | -10.05329 | 36104 ft | 469 kts | 12° |
| 2026-05-03 20:55 | 40.32299 | -10.02818 | 36102 ft | 469 kts | 12° |
| 2026-05-03 20:56 | 40.38556 | -10.00299 | 36099 ft | 469 kts | 12° |
| 2026-05-03 20:56 | 40.44768 | -9.97768 | 36093 ft | 469 kts | 12° |
| 2026-05-03 20:57 | 40.51007 | -9.95215 | 36118 ft | 469 kts | 13° |
| 2026-05-03 20:57 | 40.57252 | -9.92660 | 36108 ft | 469 kts | 13° |
| 2026-05-03 20:58 | 40.63436 | -9.90129 | 36105 ft | 469 kts | 13° |
| 2026-05-03 20:58 | 40.68628 | -9.88005 | 36102 ft | 469 kts | 13° |
| 2026-05-03 20:59 | 40.74861 | -9.85447 | 36112 ft | 468 kts | 13° |
| 2026-05-03 20:59 | 40.81057 | -9.82897 | 36096 ft | 468 kts | 13° |
| 2026-05-03 21:00 | 40.86216 | -9.80768 | 36088 ft | 469 kts | 13° |
| 2026-05-03 21:00 | 40.93484 | -9.77770 | 36114 ft | 470 kts | 13° |
| 2026-05-03 21:01 | 40.99736 | -9.75194 | 36109 ft | 469 kts | 13° |
| 2026-05-03 21:01 | 41.05919 | -9.72635 | 36102 ft | 469 kts | 13° |
| 2026-05-03 21:02 | 41.12163 | -9.70044 | 36099 ft | 469 kts | 13° |
| 2026-05-03 21:02 | 41.18376 | -9.67457 | 36101 ft | 469 kts | 13° |
| 2026-05-03 21:03 | 41.24610 | -9.64863 | 36099 ft | 468 kts | 13° |
| 2026-05-03 21:03 | 41.30795 | -9.62288 | 36096 ft | 468 kts | 13° |
| 2026-05-03 21:04 | 41.37028 | -9.59675 | 36080 ft | 468 kts | 13° |
| 2026-05-03 21:04 | 41.43243 | -9.57064 | 36101 ft | 468 kts | 14° |
| 2026-05-03 21:05 | 41.49408 | -9.54468 | 36097 ft | 467 kts | 14° |
| 2026-05-03 21:05 | 41.55607 | -9.51865 | 36090 ft | 467 kts | 14° |
| 2026-05-03 21:06 | 41.61790 | -9.49257 | 36099 ft | 466 kts | 14° |
| 2026-05-03 21:06 | 41.67877 | -9.46682 | 36096 ft | 466 kts | 14° |
| 2026-05-03 21:07 | 41.74076 | -9.44057 | 36084 ft | 466 kts | 14° |
| 2026-05-03 21:07 | 41.80261 | -9.41436 | 36080 ft | 466 kts | 14° |
| 2026-05-03 21:08 | 41.86456 | -9.38809 | 36093 ft | 466 kts | 14° |
| 2026-05-03 21:08 | 41.92606 | -9.36186 | 36089 ft | 466 kts | 14° |
| 2026-05-03 21:09 | 41.98767 | -9.33438 | 36083 ft | 466 kts | 15° |
| 2026-05-03 21:09 | 42.04911 | -9.30566 | 36099 ft | 466 kts | 16° |
| 2026-05-03 21:10 | 42.11045 | -9.27702 | 36087 ft | 466 kts | 16° |
| 2026-05-03 21:10 | 42.17176 | -9.24860 | 36081 ft | 466 kts | 16° |
| 2026-05-03 21:11 | 42.23279 | -9.22040 | 36081 ft | 465 kts | 15° |
| 2026-05-03 21:11 | 42.29425 | -9.19208 | 36089 ft | 465 kts | 16° |
| 2026-05-03 21:12 | 42.35512 | -9.16395 | 36079 ft | 465 kts | 16° |
| 2026-05-03 21:12 | 42.41568 | -9.13572 | 36079 ft | 464 kts | 16° |
| 2026-05-03 21:13 | 42.47682 | -9.10713 | 36075 ft | 464 kts | 16° |
| 2026-05-03 21:13 | 42.53795 | -9.07856 | 36060 ft | 464 kts | 16° |
| 2026-05-03 21:14 | 42.59906 | -9.05001 | 36062 ft | 465 kts | 16° |
| 2026-05-03 21:14 | 42.66010 | -9.02139 | 36055 ft | 465 kts | 16° |
| 2026-05-03 21:15 | 42.72093 | -8.99282 | 36071 ft | 465 kts | 16° |
| 2026-05-03 21:15 | 42.78230 | -8.96384 | 36067 ft | 465 kts | 16° |
| 2026-05-03 21:16 | 42.84309 | -8.93505 | 36064 ft | 464 kts | 16° |
| 2026-05-03 21:16 | 42.90426 | -8.90611 | 36085 ft | 464 kts | 17° |
| 2026-05-03 21:17 | 42.95501 | -8.88210 | 36076 ft | 464 kts | 16° |
| 2026-05-03 21:17 | 43.02612 | -8.84840 | 36073 ft | 463 kts | 17° |
| 2026-05-03 21:18 | 43.08667 | -8.81955 | 36074 ft | 463 kts | 17° |
| 2026-05-03 21:18 | 43.14762 | -8.79048 | 36079 ft | 462 kts | 17° |
| 2026-05-03 21:19 | 43.20810 | -8.76156 | 36076 ft | 462 kts | 17° |
| 2026-05-03 21:19 | 43.26868 | -8.73256 | 36073 ft | 462 kts | 17° |
| 2026-05-03 21:20 | 43.32934 | -8.70349 | 36079 ft | 461 kts | 17° |
| 2026-05-03 21:20 | 43.39006 | -8.67438 | 36073 ft | 462 kts | 17° |
| 2026-05-03 21:21 | 43.45060 | -8.64512 | 36067 ft | 462 kts | 17° |
| 2026-05-03 21:21 | 43.51118 | -8.61581 | 36072 ft | 462 kts | 17° |
| 2026-05-03 21:22 | 43.57144 | -8.58661 | 36067 ft | 462 kts | 17° |
| 2026-05-03 21:22 | 43.63210 | -8.55721 | 36064 ft | 462 kts | 17° |
| 2026-05-03 21:23 | 43.69287 | -8.52778 | 36064 ft | 462 kts | 17° |
| 2026-05-03 21:23 | 43.75353 | -8.49818 | 36075 ft | 462 kts | 17° |
| 2026-05-03 21:24 | 43.81412 | -8.46852 | 36070 ft | 461 kts | 17° |
| 2026-05-03 21:24 | 43.87385 | -8.43925 | 36068 ft | 461 kts | 17° |
| 2026-05-03 21:25 | 43.93429 | -8.40955 | 36076 ft | 461 kts | 17° |
| 2026-05-03 21:25 | 43.99476 | -8.37985 | 36071 ft | 460 kts | 17° |
| 2026-05-03 21:26 | 44.05514 | -8.35017 | 36064 ft | 460 kts | 17° |
| 2026-05-03 21:26 | 44.11564 | -8.32031 | 36050 ft | 460 kts | 17° |
| 2026-05-03 21:27 | 44.17613 | -8.29047 | 36053 ft | 461 kts | 17° |
| 2026-05-03 21:27 | 44.23666 | -8.26050 | 36050 ft | 462 kts | 17° |
| 2026-05-03 21:28 | 44.29689 | -8.23053 | 36049 ft | 462 kts | 17° |
| 2026-05-03 21:28 | 44.35752 | -8.20030 | 36059 ft | 462 kts | 18° |
| 2026-05-03 21:29 | 44.41809 | -8.17009 | 36054 ft | 462 kts | 18° |
| 2026-05-03 21:29 | 44.47861 | -8.13990 | 36054 ft | 461 kts | 18° |
| 2026-05-03 21:30 | 44.53883 | -8.10970 | 36050 ft | 461 kts | 18° |
| 2026-05-03 21:30 | 44.59930 | -8.07924 | 36051 ft | 461 kts | 18° |
| 2026-05-03 21:31 | 44.65977 | -8.04884 | 36050 ft | 461 kts | 18° |
| 2026-05-03 21:31 | 44.72021 | -8.01832 | 36060 ft | 461 kts | 18° |
| 2026-05-03 21:32 | 44.78075 | -7.98777 | 36057 ft | 461 kts | 18° |
| 2026-05-03 21:32 | 44.84036 | -7.95769 | 36053 ft | 460 kts | 18° |
| 2026-05-03 21:33 | 44.90084 | -7.92698 | 36047 ft | 460 kts | 18° |
| 2026-05-03 21:33 | 44.96084 | -7.89651 | 36052 ft | 460 kts | 18° |
| 2026-05-03 21:34 | 45.02217 | -7.87163 | 36048 ft | 458 kts | 12° |
| 2026-05-03 21:34 | 45.08406 | -7.84992 | 36045 ft | 457 kts | 12° |
| 2026-05-03 21:35 | 45.14592 | -7.82811 | 35935 ft | 456 kts | 12° |
| 2026-05-03 21:35 | 45.17667 | -7.81727 | 35373 ft | 455 kts | 12° |
| 2026-05-03 21:35 | 45.20697 | -7.80658 | 35086 ft | 454 kts | 12° |
| 2026-05-03 21:36 | 45.26839 | -7.78497 | 35028 ft | 455 kts | 12° |
| 2026-05-03 21:36 | 45.33011 | -7.76319 | 35034 ft | 455 kts | 12° |
| 2026-05-03 21:37 | 45.39127 | -7.74148 | 35020 ft | 457 kts | 12° |
| 2026-05-03 21:37 | 45.45315 | -7.71944 | 35021 ft | 457 kts | 12° |
| 2026-05-03 21:38 | 45.51499 | -7.69752 | 35023 ft | 457 kts | 12° |
| 2026-05-03 21:38 | 45.57631 | -7.67566 | 35016 ft | 456 kts | 12° |
| 2026-05-03 21:39 | 45.63769 | -7.65365 | 35011 ft | 456 kts | 12° |
| 2026-05-03 21:39 | 45.69943 | -7.63159 | 35011 ft | 456 kts | 12° |
| 2026-05-03 21:40 | 45.76102 | -7.60956 | 35009 ft | 455 kts | 12° |
| 2026-05-03 21:40 | 45.82220 | -7.58752 | 35011 ft | 455 kts | 12° |
| 2026-05-03 21:41 | 45.88261 | -7.56565 | 35007 ft | 455 kts | 12° |
| 2026-05-03 21:41 | 45.94415 | -7.54339 | 35008 ft | 455 kts | 12° |
| 2026-05-03 21:42 | 46.00559 | -7.52112 | 35004 ft | 455 kts | 12° |
| 2026-05-03 21:42 | 46.06687 | -7.49897 | 35005 ft | 457 kts | 12° |
| 2026-05-03 21:43 | 46.12859 | -7.47658 | 35011 ft | 457 kts | 13° |
| 2026-05-03 21:43 | 46.19026 | -7.45405 | 34998 ft | 456 kts | 13° |
| 2026-05-03 21:44 | 46.25110 | -7.43181 | 35005 ft | 456 kts | 13° |
| 2026-05-03 21:44 | 46.30267 | -7.41289 | 34995 ft | 456 kts | 13° |
| 2026-05-03 21:45 | 46.36376 | -7.39032 | 34990 ft | 455 kts | 13° |
| 2026-05-03 21:45 | 46.42521 | -7.36782 | 34999 ft | 455 kts | 13° |
| 2026-05-03 21:46 | 46.48635 | -7.34528 | 34990 ft | 455 kts | 13° |
| 2026-05-03 21:46 | 46.54770 | -7.32262 | 34997 ft | 455 kts | 13° |
| 2026-05-03 21:47 | 46.60906 | -7.29989 | 34992 ft | 455 kts | 13° |
| 2026-05-03 21:47 | 46.67071 | -7.27698 | 34997 ft | 456 kts | 13° |
| 2026-05-03 21:48 | 46.73192 | -7.25415 | 34985 ft | 457 kts | 13° |
| 2026-05-03 21:48 | 46.79318 | -7.23129 | 34985 ft | 457 kts | 13° |
| 2026-05-03 21:49 | 46.85476 | -7.20823 | 34991 ft | 457 kts | 13° |
| 2026-05-03 21:49 | 46.91642 | -7.18509 | 34982 ft | 456 kts | 13° |
| 2026-05-03 21:50 | 46.97757 | -7.16216 | 34993 ft | 456 kts | 13° |
| 2026-05-03 21:50 | 47.03914 | -7.13890 | 34982 ft | 455 kts | 13° |
| 2026-05-03 21:51 | 47.10026 | -7.11577 | 34990 ft | 455 kts | 13° |
| 2026-05-03 21:51 | 47.16180 | -7.09254 | 34987 ft | 455 kts | 13° |
| 2026-05-03 21:52 | 47.22288 | -7.06946 | 34980 ft | 455 kts | 13° |
| 2026-05-03 21:52 | 47.28401 | -7.04620 | 34972 ft | 455 kts | 13° |
| 2026-05-03 21:53 | 47.34501 | -7.02284 | 34982 ft | 456 kts | 13° |
| 2026-05-03 21:53 | 47.40655 | -6.99922 | 34974 ft | 456 kts | 13° |
| 2026-05-03 21:54 | 47.46795 | -6.97574 | 34978 ft | 455 kts | 13° |
| 2026-05-03 21:54 | 47.52940 | -6.95225 | 34974 ft | 455 kts | 13° |
| 2026-05-03 21:55 | 47.59069 | -6.92854 | 34980 ft | 455 kts | 14° |
| 2026-05-03 21:55 | 47.65155 | -6.90503 | 34976 ft | 455 kts | 14° |
| 2026-05-03 21:56 | 47.71288 | -6.88139 | 34976 ft | 455 kts | 14° |
| 2026-05-03 21:56 | 47.77415 | -6.85761 | 34976 ft | 455 kts | 14° |
| 2026-05-03 21:57 | 47.83554 | -6.83369 | 34973 ft | 455 kts | 14° |
| 2026-05-03 21:57 | 47.89642 | -6.81003 | 34971 ft | 455 kts | 14° |
| 2026-05-03 21:58 | 47.95774 | -6.78618 | 34968 ft | 455 kts | 14° |
| 2026-05-03 21:58 | 48.01908 | -6.76210 | 34971 ft | 456 kts | 14° |
| 2026-05-03 21:59 | 48.08050 | -6.73795 | 34967 ft | 455 kts | 14° |
| 2026-05-03 21:59 | 48.14156 | -6.71397 | 34970 ft | 455 kts | 14° |
| 2026-05-03 22:00 | 48.20299 | -6.68970 | 34971 ft | 455 kts | 14° |
| 2026-05-03 22:00 | 48.26443 | -6.66537 | 34972 ft | 455 kts | 14° |
| 2026-05-03 22:01 | 48.32534 | -6.64128 | 34967 ft | 455 kts | 14° |
| 2026-05-03 22:01 | 48.38668 | -6.61687 | 34961 ft | 455 kts | 14° |
| 2026-05-03 22:02 | 48.44778 | -6.59249 | 34962 ft | 455 kts | 14° |
| 2026-05-03 22:02 | 48.50905 | -6.56804 | 34961 ft | 455 kts | 14° |
| 2026-05-03 22:03 | 48.57031 | -6.54352 | 34962 ft | 455 kts | 14° |
| 2026-05-03 22:03 | 48.63110 | -6.51913 | 34954 ft | 455 kts | 14° |
| 2026-05-03 22:04 | 48.69238 | -6.49436 | 34961 ft | 456 kts | 14° |
| 2026-05-03 22:04 | 48.75361 | -6.46963 | 34962 ft | 456 kts | 14° |
| 2026-05-03 22:05 | 48.81466 | -6.44507 | 34962 ft | 456 kts | 14° |
| 2026-05-03 22:05 | 48.87616 | -6.42023 | 34964 ft | 456 kts | 14° |
| 2026-05-03 22:06 | 48.93745 | -6.39525 | 34958 ft | 456 kts | 14° |
| 2026-05-03 22:06 | 48.99880 | -6.37001 | 34958 ft | 456 kts | 14° |
| 2026-05-03 22:07 | 49.05973 | -6.34501 | 34959 ft | 456 kts | 14° |
| 2026-05-03 22:07 | 49.12097 | -6.31990 | 34959 ft | 456 kts | 14° |
| 2026-05-03 22:08 | 49.17854 | -6.28088 | 34956 ft | 454 kts | 40° |
| 2026-05-03 22:08 | 49.22236 | -6.21189 | 34945 ft | 455 kts | 48° |
| 2026-05-03 22:09 | 49.26521 | -6.14040 | 34956 ft | 456 kts | 48° |
| 2026-05-03 22:10 | 49.32950 | -6.03294 | 34956 ft | 456 kts | 48° |
| 2026-05-03 22:10 | 49.37255 | -5.96100 | 34957 ft | 456 kts | 48° |
| 2026-05-03 22:11 | 49.41548 | -5.88910 | 34953 ft | 456 kts | 48° |
| 2026-05-03 22:11 | 49.45815 | -5.81737 | 34951 ft | 456 kts | 48° |
| 2026-05-03 22:12 | 49.50091 | -5.74522 | 34956 ft | 456 kts | 48° |
| 2026-05-03 22:12 | 49.54347 | -5.67319 | 34953 ft | 457 kts | 48° |
| 2026-05-03 22:13 | 49.58630 | -5.60045 | 34953 ft | 457 kts | 48° |
| 2026-05-03 22:13 | 49.62908 | -5.52781 | 34954 ft | 457 kts | 48° |
| 2026-05-03 22:14 | 49.67149 | -5.45564 | 34947 ft | 457 kts | 49° |
| 2026-05-03 22:14 | 49.71417 | -5.38267 | 34946 ft | 457 kts | 49° |
| 2026-05-03 22:15 | 49.75671 | -5.30958 | 34949 ft | 457 kts | 49° |
| 2026-05-03 22:15 | 49.79928 | -5.23636 | 34951 ft | 457 kts | 49° |
| 2026-05-03 22:16 | 49.84157 | -5.16351 | 34948 ft | 457 kts | 49° |
| 2026-05-03 22:16 | 49.88411 | -5.08993 | 34948 ft | 457 kts | 49° |
| 2026-05-03 22:17 | 49.92652 | -5.01631 | 34933 ft | 457 kts | 49° |
| 2026-05-03 22:17 | 49.96887 | -4.94282 | 34932 ft | 457 kts | 49° |
| 2026-05-03 22:18 | 50.01095 | -4.86951 | 34932 ft | 457 kts | 49° |
| 2026-05-03 22:18 | 50.05331 | -4.79535 | 34936 ft | 457 kts | 49° |
| 2026-05-03 22:19 | 50.09523 | -4.72176 | 34943 ft | 456 kts | 49° |
| 2026-05-03 22:19 | 50.13733 | -4.64766 | 34943 ft | 456 kts | 49° |
| 2026-05-03 22:20 | 50.17939 | -4.57348 | 34933 ft | 456 kts | 49° |
| 2026-05-03 22:20 | 50.22125 | -4.49941 | 34943 ft | 457 kts | 49° |
| 2026-05-03 22:21 | 50.26322 | -4.42484 | 34941 ft | 457 kts | 50° |
| 2026-05-03 22:21 | 50.30515 | -4.35017 | 34942 ft | 457 kts | 50° |
| 2026-05-03 22:22 | 50.34709 | -4.27527 | 34954 ft | 456 kts | 50° |
| 2026-05-03 22:22 | 50.38890 | -4.20040 | 34948 ft | 456 kts | 50° |
| 2026-05-03 22:23 | 50.43040 | -4.12600 | 34942 ft | 456 kts | 50° |
| 2026-05-03 22:23 | 50.47237 | -4.05050 | 34948 ft | 457 kts | 50° |
| 2026-05-03 22:24 | 50.51800 | -3.98166 | 34944 ft | 458 kts | 36° |
| 2026-05-03 22:24 | 50.57383 | -3.93336 | 34952 ft | 458 kts | 21° |
| 2026-05-03 22:25 | 50.63293 | -3.89736 | 34945 ft | 457 kts | 21° |
| 2026-05-03 22:25 | 50.69236 | -3.86077 | 34945 ft | 457 kts | 21° |
| 2026-05-03 22:26 | 50.75133 | -3.82433 | 34940 ft | 457 kts | 21° |
| 2026-05-03 22:26 | 50.81072 | -3.78759 | 34942 ft | 457 kts | 21° |
| 2026-05-03 22:27 | 50.86984 | -3.75091 | 34932 ft | 456 kts | 21° |
| 2026-05-03 22:27 | 50.92877 | -3.71431 | 34954 ft | 457 kts | 21° |
| 2026-05-03 22:28 | 50.98806 | -3.67735 | 34938 ft | 457 kts | 21° |
| 2026-05-03 22:28 | 51.04735 | -3.64030 | 34946 ft | 458 kts | 21° |
| 2026-05-03 22:29 | 51.09672 | -3.60936 | 34941 ft | 457 kts | 21° |
| 2026-05-03 22:29 | 51.16565 | -3.56602 | 34942 ft | 458 kts | 21° |
| 2026-05-03 22:30 | 51.21497 | -3.53500 | 34939 ft | 457 kts | 20° |
| 2026-05-03 22:30 | 51.27672 | -3.51240 | 34951 ft | 456 kts | 6° |
| 2026-05-03 22:31 | 51.33985 | -3.50029 | 34942 ft | 456 kts | 6° |
| 2026-05-03 22:31 | 51.40301 | -3.48778 | 34943 ft | 456 kts | 6° |
| 2026-05-03 22:32 | 51.46571 | -3.47521 | 34946 ft | 456 kts | 6° |
| 2026-05-03 22:32 | 51.52880 | -3.46260 | 34941 ft | 456 kts | 6° |
| 2026-05-03 22:32 | 51.56027 | -3.45636 | 34787 ft | 452 kts | 6° |
| 2026-05-03 22:33 | 51.59136 | -3.45020 | 34548 ft | 447 kts | 6° |
| 2026-05-03 22:33 | 51.62212 | -3.44407 | 34314 ft | 444 kts | 6° |
| 2026-05-03 22:33 | 51.65269 | -3.43795 | 34084 ft | 442 kts | 6° |
| 2026-05-03 22:33 | 51.68318 | -3.43184 | 33839 ft | 440 kts | 6° |
| 2026-05-03 22:34 | 51.71312 | -3.42585 | 33569 ft | 438 kts | 6° |
| 2026-05-03 22:34 | 51.74334 | -3.41979 | 33241 ft | 434 kts | 7° |
| 2026-05-03 22:34 | 51.77326 | -3.41378 | 32713 ft | 431 kts | 7° |
| 2026-05-03 22:34 | 51.80303 | -3.40780 | 32203 ft | 429 kts | 7° |
| 2026-05-03 22:35 | 51.83260 | -3.40186 | 31679 ft | 426 kts | 7° |
| 2026-05-03 22:35 | 51.86159 | -3.39601 | 31206 ft | 423 kts | 7° |
| 2026-05-03 22:35 | 51.89082 | -3.39010 | 30701 ft | 421 kts | 7° |
| 2026-05-03 22:35 | 51.91989 | -3.38423 | 30227 ft | 418 kts | 7° |
| 2026-05-03 22:36 | 51.94883 | -3.37936 | 29705 ft | 416 kts | 4° |
| 2026-05-03 22:36 | 51.97763 | -3.37643 | 29249 ft | 411 kts | 2° |
| 2026-05-03 22:36 | 52.00569 | -3.37476 | 28799 ft | 406 kts | 1° |
| 2026-05-03 22:36 | 52.03369 | -3.37357 | 28365 ft | 401 kts | 1° |
| 2026-05-03 22:37 | 52.06149 | -3.37237 | 27939 ft | 396 kts | 1° |
| 2026-05-03 22:37 | 52.08900 | -3.37089 | 27498 ft | 392 kts | 2° |
| 2026-05-03 22:37 | 52.11611 | -3.36916 | 27067 ft | 388 kts | 2° |
| 2026-05-03 22:37 | 52.14300 | -3.36726 | 26634 ft | 385 kts | 2° |
| 2026-05-03 22:38 | 52.16933 | -3.36528 | 26194 ft | 382 kts | 2° |
| 2026-05-03 22:38 | 52.19576 | -3.36329 | 25754 ft | 379 kts | 2° |
| 2026-05-03 22:38 | 52.22238 | -3.36128 | 25295 ft | 377 kts | 2° |
| 2026-05-03 22:38 | 52.24826 | -3.35934 | 24842 ft | 375 kts | 2° |
| 2026-05-03 22:39 | 52.27433 | -3.35741 | 24369 ft | 373 kts | 2° |
| 2026-05-03 22:39 | 52.30028 | -3.35553 | 23900 ft | 372 kts | 2° |
| 2026-05-03 22:39 | 52.32588 | -3.35369 | 23410 ft | 371 kts | 2° |
| 2026-05-03 22:39 | 52.35163 | -3.35184 | 22915 ft | 369 kts | 2° |
| 2026-05-03 22:40 | 52.37685 | -3.35004 | 22459 ft | 366 kts | 2° |
| 2026-05-03 22:40 | 52.40224 | -3.34820 | 21992 ft | 364 kts | 2° |
| 2026-05-03 22:40 | 52.42748 | -3.34637 | 21544 ft | 361 kts | 2° |
| 2026-05-03 22:40 | 52.45258 | -3.34452 | 21099 ft | 360 kts | 2° |
| 2026-05-03 22:41 | 52.47740 | -3.34265 | 20656 ft | 358 kts | 3° |
| 2026-05-03 22:41 | 52.50194 | -3.34078 | 20225 ft | 356 kts | 3° |
| 2026-05-03 22:41 | 52.52663 | -3.33894 | 19793 ft | 354 kts | 3° |
| 2026-05-03 22:41 | 52.55131 | -3.33712 | 19357 ft | 353 kts | 3° |
| 2026-05-03 22:42 | 52.57580 | -3.33529 | 18921 ft | 352 kts | 2° |
| 2026-05-03 22:42 | 52.60029 | -3.33348 | 18494 ft | 351 kts | 2° |
| 2026-05-03 22:42 | 52.62434 | -3.33082 | 18042 ft | 349 kts | 9° |
| 2026-05-03 22:42 | 52.64775 | -3.32069 | 17545 ft | 348 kts | 20° |
| 2026-05-03 22:43 | 52.67047 | -3.30701 | 17036 ft | 348 kts | 20° |
| 2026-05-03 22:43 | 52.69333 | -3.29328 | 16528 ft | 348 kts | 20° |
| 2026-05-03 22:43 | 52.71613 | -3.27968 | 16076 ft | 348 kts | 20° |
| 2026-05-03 22:43 | 52.73866 | -3.26632 | 15807 ft | 341 kts | 20° |
| 2026-05-03 22:44 | 52.76095 | -3.25306 | 15353 ft | 341 kts | 20° |
| 2026-05-03 22:44 | 52.78306 | -3.23983 | 14767 ft | 337 kts | 20° |
| 2026-05-03 22:44 | 52.80472 | -3.22682 | 14090 ft | 333 kts | 20° |
| 2026-05-03 22:44 | 52.82630 | -3.21383 | 13573 ft | 324 kts | 20° |
| 2026-05-03 22:45 | 52.84712 | -3.20133 | 13098 ft | 314 kts | 20° |
| 2026-05-03 22:45 | 52.86744 | -3.18914 | 12646 ft | 307 kts | 20° |
| 2026-05-03 22:45 | 52.88761 | -3.17769 | 12204 ft | 304 kts | 14° |
| 2026-05-03 22:45 | 52.90867 | -3.17258 | 11780 ft | 306 kts | 2° |
| 2026-05-03 22:46 | 52.92953 | -3.17173 | 11521 ft | 301 kts | 0° |
| 2026-05-03 22:46 | 52.95034 | -3.17149 | 11112 ft | 296 kts | 0° |
| 2026-05-03 22:46 | 52.97099 | -3.17131 | 10678 ft | 296 kts | 360° |
| 2026-05-03 22:46 | 52.99151 | -3.17108 | 10394 ft | 292 kts | 0° |
| 2026-05-03 22:47 | 53.01176 | -3.17078 | 10112 ft | 289 kts | 0° |
| 2026-05-03 22:47 | 53.03180 | -3.17042 | 9785 ft | 287 kts | 0° |
| 2026-05-03 22:47 | 53.05163 | -3.17009 | 9419 ft | 285 kts | 0° |
| 2026-05-03 22:47 | 53.07143 | -3.16986 | 9063 ft | 283 kts | 0° |
| 2026-05-03 22:48 | 53.09084 | -3.16969 | 8838 ft | 273 kts | 0° |
| 2026-05-03 22:48 | 53.10917 | -3.16957 | 8663 ft | 255 kts | 0° |
| 2026-05-03 22:48 | 53.12663 | -3.16950 | 8267 ft | 247 kts | 0° |
| 2026-05-03 22:48 | 53.14345 | -3.16950 | 7863 ft | 243 kts | 0° |
| 2026-05-03 22:49 | 53.16029 | -3.16964 | 7465 ft | 242 kts | 0° |
| 2026-05-03 22:49 | 53.17727 | -3.16988 | 7064 ft | 245 kts | 360° |
| 2026-05-03 22:49 | 53.19413 | -3.17016 | 6696 ft | 238 kts | 0° |
| 2026-05-03 22:49 | 53.21042 | -3.17051 | 6407 ft | 229 kts | 0° |
| 2026-05-03 22:50 | 53.22610 | -3.17093 | 6115 ft | 221 kts | 0° |
| 2026-05-03 22:50 | 53.24111 | -3.17133 | 5830 ft | 214 kts | 0° |
| 2026-05-03 22:50 | 53.25585 | -3.17174 | 5521 ft | 209 kts | 0° |
| 2026-05-03 22:50 | 53.27007 | -3.17219 | 5217 ft | 205 kts | 0° |
| 2026-05-03 22:51 | 53.28423 | -3.17268 | 4888 ft | 201 kts | 1° |
| 2026-05-03 22:51 | 53.29750 | -3.16803 | 4449 ft | 194 kts | 32° |
| 2026-05-03 22:51 | 53.30629 | -3.15165 | 4039 ft | 189 kts | 60° |
| 2026-05-03 22:51 | 53.31207 | -3.13229 | 3606 ft | 187 kts | 64° |
| 2026-05-03 22:52 | 53.31746 | -3.11259 | 3192 ft | 186 kts | 65° |
| 2026-05-03 22:52 | 53.32215 | -3.09303 | 2821 ft | 180 kts | 79° |
| 2026-05-03 22:52 | 53.32316 | -3.07251 | 2584 ft | 175 kts | 84° |
| 2026-05-03 22:52 | 53.32409 | -3.05249 | 2343 ft | 170 kts | 84° |
| 2026-05-03 22:53 | 53.32498 | -3.03374 | 2126 ft | 158 kts | 84° |
| 2026-05-03 22:53 | 53.32581 | -3.01611 | 1923 ft | 142 kts | 83° |
| 2026-05-03 22:53 | 53.32657 | -3.00014 | 1739 ft | 135 kts | 83° |
| 2026-05-03 22:53 | 53.32730 | -2.98489 | 1538 ft | 132 kts | 83° |
| 2026-05-03 22:54 | 53.32804 | -2.96940 | 1328 ft | 132 kts | 83° |
| 2026-05-03 22:54 | 53.32874 | -2.95418 | 1147 ft | 133 kts | 84° |
| 2026-05-03 22:54 | 53.32946 | -2.93868 | 961 ft | 134 kts | 84° |
| 2026-05-03 22:54 | 53.33018 | -2.92318 | 785 ft | 133 kts | 84° |
| 2026-05-03 22:55 | 53.33090 | -2.90794 | 598 ft | 133 kts | 84° |
| 2026-05-03 22:55 | 53.33163 | -2.89250 | 424 ft | 133 kts | 83° |
| 2026-05-03 22:55 | 53.33235 | -2.87704 | 248 ft | 133 kts | 83° |
| 2026-05-03 22:55 | 53.33302 | -2.86283 | 93 ft | 130 kts | 83° |
| 2026-05-03 22:56 | 53.33356 | -2.85174 | 90 ft | 57 kts | 86° |
| 2026-05-03 22:56 | 53.33373 | -2.84793 | 89 ft | 27 kts | 85° |
| 2026-05-03 22:56 | 53.33426 | -2.84508 | 91 ft | 24 kts | 60° |
| 2026-05-03 22:56 | 53.33497 | -2.84311 | 91 ft | 16 kts | 60° |
| 2026-05-03 22:57 | 53.33562 | -2.84279 | 90 ft | 6 kts | 274° |
| 2026-05-03 22:57 | 53.33561 | -2.84312 | 89 ft | 8 kts | 268° |
| 2026-05-03 22:57 | 53.33556 | -2.84417 | 91 ft | 9 kts | 265° |
| 2026-05-03 22:57 | 53.33551 | -2.84514 | 89 ft | 10 kts | 265° |
| 2026-05-03 22:58 | 53.33545 | -2.84640 | 89 ft | 11 kts | 265° |
| 2026-05-03 22:58 | 53.33540 | -2.84757 | 89 ft | 10 kts | 265° |
| 2026-05-03 22:58 | 53.33533 | -2.84899 | 92 ft | 15 kts | 265° |
| 2026-05-03 22:58 | 53.33525 | -2.85073 | 92 ft | 14 kts | 265° |
| 2026-05-03 22:59 | 53.33518 | -2.85222 | 91 ft | 12 kts | 265° |
| 2026-05-03 22:59 | 53.33513 | -2.85354 | 89 ft | 11 kts | 266° |
| 2026-05-03 22:59 | 53.33509 | -2.85474 | 89 ft | 9 kts | 282° |
| 2026-05-03 22:59 | 53.33558 | -2.85510 | 91 ft | 7 kts | 358° |
| 2026-05-03 23:00 | 53.33604 | -2.85511 | 89 ft | 6 kts | 4° |
| 2026-05-03 23:00 | 53.33640 | -2.85512 | 89 ft | 5 kts | 356° |
| 2026-05-03 23:00 | 53.33666 | -2.85514 | 90 ft | 2 kts | 356° |
| 2026-05-03 23:00 | 53.33667 | -2.85514 | 90 ft | 0 kts | 356° |